CheckWX is a tool to help pilots better visualize weather data.  It is not intended as a substitute for an official pre-flight weather briefing.

14:51:27 UTC

KDHT METAR
Dalhart Municipal Airport
Dalhart, Texas, USA
Current

24 mins ago

KDHT 201427Z AUTO 03010KT 9SM -RA BKN005 BKN015 OVC024 12/11 A2981 RMK AO2 P0000 T01220111
Observed
May-20 @ 14:27 UTC
Wind
  • 030° at 10 KTS
Visibility
9 SM
Flight Rules
IFR
Conditions
Light Rain
Cloud Levels
  • Broken at 500' AGL
  • Broken at 1,500' AGL
  • Overcast at 2,400' AGL
Temperature
12°C / 54°F
Dewpoint
11°C / 52°F
Humidity
94%
Altimeter
29.81" Hg
Pressure
1009.52 hPa
Current Rain
0.01"
Previous

31 mins ago

KDHT 201420Z AUTO 05013KT 10SM -RA FEW005 SCT013 OVC025 12/11 A2981 RMK AO2 LTG DSNT N P0000 T01220106
Observed
May-20 @ 14:20 UTC
Wind
  • 050° at 13 KTS
Visibility
10 SM
Flight Rules
MVFR
Conditions
Light Rain
Cloud Levels
  • Few at 500' AGL
  • Scattered at 1,300' AGL
  • Overcast at 2,500' AGL
Temperature
12°C / 54°F
Dewpoint
11°C / 52°F
Humidity
94%
Altimeter
29.81" Hg
Pressure
1009.52 hPa
Current Rain
0.01"
Previous

50 mins ago

KDHT 201401Z AUTO 07014KT 7SM -RA FEW005 OVC013 12/11 A2979 RMK AO2 LTG DSNT N P0000 T01220106
Observed
May-20 @ 14:01 UTC
Wind
  • 070° at 14 KTS
Visibility
7 SM
Flight Rules
MVFR
Conditions
Light Rain
Cloud Levels
  • Few at 500' AGL
  • Overcast at 1,300' AGL
Temperature
12°C / 54°F
Dewpoint
11°C / 52°F
Humidity
94%
Altimeter
29.79" Hg
Pressure
1008.82 hPa
Current Rain
0.01"